createdAt,value
2023-04-30T00:02:09.350Z,94677.59
2023-04-30T00:04:37.052Z,94675.81
2023-04-30T00:07:04.079Z,94678.72
2023-04-30T00:09:30.743Z,94680.28
2023-04-30T00:11:57.564Z,94674.84
2023-04-30T00:14:24.320Z,94666.72
2023-04-30T00:16:51.167Z,94682.19
2023-04-30T00:19:17.930Z,94682.59
2023-04-30T00:21:44.709Z,94685.31
2023-04-30T00:24:11.327Z,94672.66
2023-04-30T00:26:39.157Z,94679.03
2023-04-30T00:29:05.748Z,94660.22
2023-04-30T00:31:32.391Z,94681.94
2023-04-30T00:33:59.105Z,94674.53
2023-04-30T00:36:25.865Z,94686.03
2023-04-30T00:38:52.583Z,94670.03
2023-04-30T00:41:21.203Z,94689.78
2023-04-30T00:43:47.811Z,94685.72
2023-04-30T00:46:14.465Z,94680.00
2023-04-30T00:48:41.186Z,94661.75
2023-04-30T00:51:08.418Z,94665.69
2023-04-30T00:53:36.314Z,94662.25
2023-04-30T00:56:02.980Z,94665.25
2023-04-30T00:58:30.131Z,94656.66
2023-04-30T01:00:57.075Z,94673.00
2023-04-30T01:03:24.169Z,94667.63
2023-04-30T01:05:50.831Z,94650.00
2023-04-30T01:08:17.760Z,94669.44
2023-04-30T01:11:17.584Z,94663.25
2023-04-30T01:14:08.306Z,94670.97
2023-04-30T01:16:51.300Z,94660.13
2023-04-30T01:19:41.031Z,94672.34
2023-04-30T01:22:12.054Z,94672.78
2023-04-30T01:25:00.378Z,94671.56
2023-04-30T01:27:48.604Z,94665.56
2023-04-30T01:30:17.253Z,94669.78
2023-04-30T01:32:43.895Z,94670.06
2023-04-30T01:35:10.732Z,94658.00
2023-04-30T01:38:00.185Z,94670.22
2023-04-30T01:40:26.776Z,94675.00
2023-04-30T01:43:18.368Z,94678.91
2023-04-30T01:45:56.880Z,94673.81
2023-04-30T01:48:51.219Z,94675.91
2023-04-30T01:51:30.776Z,94671.41
2023-04-30T01:54:00.624Z,94667.22
2023-04-30T01:56:32.751Z,94661.31
2023-04-30T01:59:00.864Z,94671.13
2023-04-30T02:01:29.022Z,94678.69
2023-04-30T02:03:55.926Z,94677.47
2023-04-30T02:06:28.471Z,94673.25
2023-04-30T02:08:56.762Z,94676.72
2023-04-30T02:11:24.706Z,94653.94
2023-04-30T02:13:51.768Z,94657.88
2023-04-30T02:16:18.674Z,94669.63
2023-04-30T02:18:45.995Z,94669.03
2023-04-30T02:21:12.765Z,94668.13
2023-04-30T02:23:39.343Z,94669.78
2023-04-30T02:26:06.072Z,94663.16
2023-04-30T02:28:32.672Z,94673.84
2023-04-30T02:30:59.383Z,94669.34
2023-04-30T02:33:26.066Z,94666.31
2023-04-30T02:35:52.699Z,94675.53
2023-04-30T02:38:19.331Z,94665.13
2023-04-30T02:40:45.930Z,94674.00
2023-04-30T02:43:12.531Z,94676.56
2023-04-30T02:45:39.198Z,94676.28
2023-04-30T02:48:06.072Z,94669.66
2023-04-30T02:50:33.014Z,94674.03
2023-04-30T02:53:00.040Z,94685.03
2023-04-30T02:55:26.778Z,94677.81
2023-04-30T02:57:53.506Z,94682.47
2023-04-30T03:00:20.286Z,94683.84
2023-04-30T03:02:47.034Z,94686.69
2023-04-30T03:05:15.811Z,94685.66
2023-04-30T03:07:42.536Z,94678.72
2023-04-30T03:10:10.001Z,94674.34
2023-04-30T03:12:36.707Z,94673.28
2023-04-30T03:15:03.823Z,94692.88
2023-04-30T03:17:30.491Z,94686.84
2023-04-30T03:19:57.239Z,94693.50
2023-04-30T03:22:26.742Z,94686.84
2023-04-30T03:24:53.436Z,94687.88
2023-04-30T03:27:20.213Z,94694.53
2023-04-30T03:29:46.879Z,94693.91
2023-04-30T03:32:13.520Z,94695.75
2023-04-30T03:34:40.152Z,94704.78
2023-04-30T03:37:06.728Z,94698.75
2023-04-30T03:39:33.402Z,94707.97
2023-04-30T03:42:00.446Z,94707.84
2023-04-30T03:44:27.146Z,94716.56
2023-04-30T03:46:53.784Z,94720.34
2023-04-30T03:49:20.460Z,94723.84
2023-04-30T03:51:47.532Z,94723.41
2023-04-30T03:54:14.138Z,94724.56
2023-04-30T03:56:41.243Z,94726.06
2023-04-30T03:59:08.153Z,94722.72
2023-04-30T04:01:34.903Z,94731.78
2023-04-30T04:04:02.476Z,94717.00
2023-04-30T04:06:29.317Z,94727.28
2023-04-30T04:08:56.235Z,94736.94
2023-04-30T04:11:22.958Z,94739.47
2023-04-30T04:13:49.632Z,94731.50
2023-04-30T04:16:16.333Z,94725.31
2023-04-30T04:18:43.404Z,94742.22
2023-04-30T04:21:10.092Z,94735.72
2023-04-30T04:23:36.723Z,94731.63
2023-04-30T04:26:03.372Z,94729.66
2023-04-30T04:28:30.161Z,94742.41
2023-04-30T04:30:56.843Z,94742.41
2023-04-30T04:33:23.411Z,94747.94
2023-04-30T04:35:50.019Z,94749.31
2023-04-30T04:38:16.716Z,94739.38
2023-04-30T04:40:51.589Z,94745.88
2023-04-30T04:43:18.454Z,94747.66
2023-04-30T04:45:45.187Z,94751.88
2023-04-30T04:48:11.857Z,94747.63
2023-04-30T04:50:38.579Z,94744.88
2023-04-30T04:53:05.312Z,94749.88
2023-04-30T04:55:32.237Z,94754.41
2023-04-30T04:57:58.895Z,94766.19
2023-04-30T05:00:25.962Z,94759.09
2023-04-30T05:02:53.591Z,94754.50
2023-04-30T05:05:20.524Z,94761.38
2023-04-30T05:07:47.224Z,94773.13
2023-04-30T05:10:14.134Z,94763.56
2023-04-30T05:12:40.969Z,94749.38
2023-04-30T05:15:08.109Z,94765.69
2023-04-30T05:17:34.856Z,94762.06
2023-04-30T05:20:01.899Z,94760.28
2023-04-30T05:22:28.591Z,94767.22
2023-04-30T05:24:55.971Z,94771.13
2023-04-30T05:27:22.664Z,94767.59
2023-04-30T05:29:49.412Z,94766.22
2023-04-30T05:32:16.436Z,94770.44
2023-04-30T05:34:43.067Z,94763.16
2023-04-30T05:37:09.784Z,94772.09
2023-04-30T05:39:36.415Z,94766.59
2023-04-30T05:42:03.486Z,94766.53
2023-04-30T05:44:33.090Z,94770.41
2023-04-30T05:46:59.785Z,94774.28
2023-04-30T05:49:27.497Z,94767.72
2023-04-30T05:51:54.198Z,94767.34
2023-04-30T05:54:20.848Z,94765.16
2023-04-30T05:56:47.806Z,94763.03
2023-04-30T05:59:14.453Z,94767.13
2023-04-30T06:01:41.876Z,94770.72
2023-04-30T06:04:09.429Z,94786.72
2023-04-30T06:06:41.327Z,94789.16
2023-04-30T06:09:08.277Z,94750.66
2023-04-30T06:11:35.208Z,94741.63
2023-04-30T06:14:06.058Z,94793.59
2023-04-30T06:16:33.364Z,94745.03
2023-04-30T06:19:00.455Z,94788.84
2023-04-30T06:21:27.354Z,94740.41
2023-04-30T06:23:54.162Z,94788.22
2023-04-30T06:26:21.005Z,94790.72
2023-04-30T06:28:47.645Z,94790.28
2023-04-30T06:31:14.490Z,94789.81
2023-04-30T06:33:41.196Z,94796.50
2023-04-30T06:36:07.806Z,94788.09
2023-04-30T06:38:34.440Z,94780.81
2023-04-30T06:41:01.085Z,94782.78
2023-04-30T06:43:27.762Z,94783.38
2023-04-30T06:45:54.414Z,94791.44
2023-04-30T06:48:21.084Z,94793.53
2023-04-30T06:50:47.646Z,94796.06
2023-04-30T06:53:15.278Z,94786.59
2023-04-30T06:55:43.075Z,94802.13
2023-04-30T06:58:09.810Z,94778.59
2023-04-30T07:00:36.633Z,94783.84
2023-04-30T07:03:04.894Z,94790.94
2023-04-30T07:05:32.117Z,94781.75
2023-04-30T07:08:01.447Z,94784.34
2023-04-30T07:10:28.174Z,94780.41
2023-04-30T07:12:55.288Z,94791.16
2023-04-30T07:15:22.007Z,94788.84
2023-04-30T07:17:48.770Z,94791.31
2023-04-30T07:20:15.967Z,94791.31
2023-04-30T07:22:45.859Z,94794.78
2023-04-30T07:25:15.939Z,94796.50
2023-04-30T07:27:42.647Z,94800.78
2023-04-30T07:30:10.698Z,94794.13
2023-04-30T07:32:38.230Z,94790.63
2023-04-30T07:35:05.354Z,94785.88
2023-04-30T07:37:34.912Z,94805.84
2023-04-30T07:40:02.466Z,94806.59
2023-04-30T07:42:29.148Z,94790.88
2023-04-30T07:44:55.740Z,94785.41
2023-04-30T07:47:22.524Z,94790.97
2023-04-30T07:49:49.924Z,94791.44
2023-04-30T07:52:16.755Z,94785.72
2023-04-30T07:54:43.421Z,94782.72
2023-04-30T07:57:10.078Z,94793.69
2023-04-30T07:59:36.662Z,94801.44
2023-04-30T08:02:03.882Z,94794.47
2023-04-30T08:04:30.839Z,94798.44
2023-04-30T08:06:57.540Z,94805.94
2023-04-30T08:09:24.313Z,94800.94
2023-04-30T08:11:51.372Z,94800.94
2023-04-30T08:14:18.053Z,94809.47
2023-04-30T08:16:44.898Z,94785.47
2023-04-30T08:19:11.615Z,94805.19
2023-04-30T08:21:39.034Z,94814.16
2023-04-30T08:24:05.919Z,94798.41
2023-04-30T08:26:32.594Z,94805.41
2023-04-30T08:28:59.248Z,94800.97
2023-04-30T08:31:26.076Z,94804.97
2023-04-30T08:33:52.910Z,94809.44
2023-04-30T08:36:19.837Z,94801.19
2023-04-30T08:38:46.731Z,94814.19
2023-04-30T08:41:18.782Z,94805.69
2023-04-30T08:43:45.426Z,94800.91
2023-04-30T08:46:13.985Z,94801.31
2023-04-30T08:48:41.635Z,94796.13
2023-04-30T08:51:08.466Z,94787.56
2023-04-30T08:53:38.439Z,94791.56
2023-04-30T08:56:05.956Z,94794.56
2023-04-30T08:58:32.954Z,94785.13
2023-04-30T09:01:00.764Z,94787.06
2023-04-30T09:03:28.565Z,94772.81
2023-04-30T09:05:55.572Z,94777.88
2023-04-30T09:11:30.599Z,94778.56
2023-04-30T09:14:01.888Z,94763.44
2023-04-30T09:16:33.829Z,94762.88
2023-04-30T09:19:08.147Z,94758.19
2023-04-30T09:24:24.142Z,94754.44
2023-04-30T09:26:51.753Z,94674.84
2023-04-30T09:29:18.614Z,94702.50
2023-04-30T09:32:01.354Z,94762.28
2023-04-30T09:34:35.971Z,94731.00
2023-04-30T09:37:02.664Z,94739.47
2023-04-30T09:39:30.051Z,94746.66
2023-04-30T09:42:10.150Z,94743.13
2023-04-30T09:44:44.527Z,94733.09
2023-04-30T09:47:15.992Z,94735.72
2023-04-30T09:49:45.808Z,94699.06
2023-04-30T09:52:12.837Z,94721.72
2023-04-30T09:54:41.193Z,94717.97
2023-04-30T09:57:11.454Z,94727.13
2023-04-30T09:59:39.864Z,94710.13
2023-04-30T10:02:08.841Z,94715.00
2023-04-30T10:04:42.957Z,94714.28
2023-04-30T10:07:15.619Z,94706.84
2023-04-30T10:09:59.886Z,94726.72
2023-04-30T10:12:44.664Z,94691.22
2023-04-30T10:15:17.722Z,94764.22
2023-04-30T10:17:50.211Z,94711.44
2023-04-30T10:20:19.209Z,94686.94
2023-04-30T10:22:48.660Z,94744.72
2023-04-30T10:25:16.507Z,94771.69
2023-04-30T10:27:43.712Z,94766.94
2023-04-30T10:30:11.939Z,94770.16
2023-04-30T10:32:57.813Z,94753.69
2023-04-30T10:35:33.562Z,94739.72
2023-04-30T10:38:17.019Z,94751.19
2023-04-30T10:40:47.307Z,94718.41
2023-04-30T10:43:14.182Z,94703.69
2023-04-30T10:45:46.774Z,94750.97
2023-04-30T10:48:16.083Z,94729.13
2023-04-30T10:50:46.199Z,94750.19
2023-04-30T10:53:16.202Z,94738.66
2023-04-30T10:56:06.645Z,94737.81
2023-04-30T10:58:35.739Z,94726.50
2023-04-30T11:01:12.215Z,94733.63
2023-04-30T11:03:41.298Z,94698.09
2023-04-30T11:06:15.969Z,94728.75
2023-04-30T11:08:47.612Z,94715.69
2023-04-30T11:11:24.011Z,94712.38
2023-04-30T11:14:01.340Z,94730.56
2023-04-30T11:16:34.394Z,94730.06
2023-04-30T11:19:11.681Z,94726.75
2023-04-30T11:21:42.958Z,94731.06
2023-04-30T11:24:23.353Z,94723.16
2023-04-30T11:27:15.413Z,94729.94
2023-04-30T11:29:44.159Z,94710.06
2023-04-30T11:32:11.099Z,94687.16
2023-04-30T11:34:39.093Z,94697.91
2023-04-30T11:37:07.037Z,94726.13
2023-04-30T11:39:37.314Z,94726.28
2023-04-30T11:42:04.222Z,94663.38
2023-04-30T11:44:31.146Z,94648.06
2023-04-30T11:46:58.867Z,94710.59
2023-04-30T11:49:27.130Z,94663.19
2023-04-30T11:51:53.910Z,94713.78
2023-04-30T11:54:20.703Z,94698.81
2023-04-30T11:56:49.178Z,94674.09
2023-04-30T11:59:17.006Z,94715.78
2023-04-30T12:01:44.590Z,94713.31
2023-04-30T12:06:37.055Z,94709.50
2023-04-30T12:09:07.403Z,94700.00
2023-04-30T12:11:35.739Z,94733.97
2023-04-30T12:14:07.895Z,94751.72
2023-04-30T12:16:51.284Z,94708.22
2023-04-30T12:19:19.510Z,94763.94
2023-04-30T12:21:48.540Z,94739.50
2023-04-30T12:24:17.713Z,94746.47
2023-04-30T12:26:45.237Z,94729.97
2023-04-30T12:29:15.881Z,94722.47
2023-04-30T12:31:43.795Z,94748.44
2023-04-30T12:34:12.701Z,94731.69
2023-04-30T12:36:42.893Z,94738.16
2023-04-30T12:39:20.827Z,94736.47
2023-04-30T12:41:49.529Z,94738.41
2023-04-30T12:44:27.660Z,94733.13
2023-04-30T12:46:57.385Z,94732.41
2023-04-30T12:49:29.679Z,94738.56
2023-04-30T12:52:09.030Z,94738.09
2023-04-30T12:54:36.942Z,94744.09
2023-04-30T12:57:12.467Z,94735.56
2023-04-30T12:59:59.404Z,94734.22
2023-04-30T13:02:28.745Z,94724.59
2023-04-30T13:04:55.697Z,94714.44
2023-04-30T13:07:23.267Z,94711.97
2023-04-30T13:09:50.120Z,94719.91
2023-04-30T13:12:17.236Z,94689.66
2023-04-30T13:14:44.980Z,94702.56
2023-04-30T13:17:14.154Z,94706.63
2023-04-30T13:19:41.221Z,94698.94
2023-04-30T13:22:08.076Z,94655.25
2023-04-30T13:24:36.325Z,94713.66
2023-04-30T13:27:04.350Z,94690.75
2023-04-30T13:29:32.045Z,94680.22
2023-04-30T13:31:59.369Z,94685.34
2023-04-30T13:34:26.665Z,94605.44
2023-04-30T13:36:57.322Z,94616.38
2023-04-30T13:39:29.245Z,94655.53
2023-04-30T13:41:56.213Z,94687.75
2023-04-30T13:44:24.750Z,94701.22
2023-04-30T13:46:52.357Z,94677.09
2023-04-30T13:49:19.485Z,94621.47
2023-04-30T13:51:46.067Z,94665.94
2023-04-30T13:54:12.696Z,94673.59
2023-04-30T13:56:42.998Z,94679.94
2023-04-30T13:59:09.734Z,94678.84
2023-04-30T14:01:37.366Z,94678.88
2023-04-30T14:04:04.889Z,94671.19
2023-04-30T14:06:32.134Z,94671.25
2023-04-30T14:08:58.797Z,94680.78
2023-04-30T14:11:27.512Z,94681.50
2023-04-30T14:13:55.227Z,94680.44
2023-04-30T14:16:23.021Z,94671.28
2023-04-30T14:18:49.892Z,94674.47
2023-04-30T14:21:16.598Z,94626.03
2023-04-30T14:23:46.546Z,94671.38
2023-04-30T14:26:13.363Z,94668.91
2023-04-30T14:28:40.098Z,94669.06
2023-04-30T14:31:06.864Z,94657.59
2023-04-30T14:33:33.459Z,94655.13
2023-04-30T14:36:03.186Z,94653.81
2023-04-30T14:38:29.786Z,94647.06
2023-04-30T14:40:56.417Z,94649.50
2023-04-30T14:43:23.684Z,94629.81
2023-04-30T14:45:52.068Z,94641.50
2023-04-30T14:48:18.709Z,94648.66
2023-04-30T14:50:49.280Z,94656.75
2023-04-30T14:53:16.421Z,94640.38
2023-04-30T14:55:43.954Z,94624.28
2023-04-30T15:01:10.865Z,94623.75
2023-04-30T15:03:41.020Z,94655.72
2023-04-30T15:06:08.898Z,94668.53
2023-04-30T15:08:36.737Z,94579.97
2023-04-30T15:11:07.641Z,94625.19
2023-04-30T15:13:35.053Z,94606.53
2023-04-30T15:16:02.358Z,94674.84
2023-04-30T15:18:29.838Z,94679.13
2023-04-30T15:20:56.791Z,94690.75
2023-04-30T15:23:24.154Z,94641.63
2023-04-30T15:26:05.825Z,94627.34
2023-04-30T15:31:32.319Z,94588.59
2023-04-30T15:34:01.066Z,94682.25
2023-04-30T15:36:28.792Z,94684.00
2023-04-30T15:38:56.598Z,94604.97
2023-04-30T15:41:24.902Z,94617.72
2023-04-30T15:43:52.250Z,94606.28
2023-04-30T15:46:26.021Z,94676.38
2023-04-30T15:48:53.482Z,94675.22
2023-04-30T15:51:27.354Z,94674.53
2023-04-30T15:54:03.458Z,94683.63
2023-04-30T15:56:32.039Z,94650.75
2023-04-30T15:59:05.981Z,94681.97
2023-04-30T16:01:34.102Z,94615.97
2023-04-30T16:04:01.514Z,94678.97
2023-04-30T16:06:30.239Z,94594.25
2023-04-30T16:08:57.340Z,94665.69
2023-04-30T16:11:24.533Z,94668.63
2023-04-30T16:14:14.236Z,94672.59
2023-04-30T16:16:41.516Z,94636.28
2023-04-30T16:19:30.763Z,94647.28
2023-04-30T16:21:58.410Z,94612.19
2023-04-30T16:24:38.971Z,94677.66
2023-04-30T16:27:15.439Z,94634.72
2023-04-30T16:29:43.604Z,94689.47
2023-04-30T16:32:13.051Z,94669.72
2023-04-30T16:34:41.289Z,94666.66
2023-04-30T16:37:07.874Z,94646.16
2023-04-30T16:39:34.542Z,94684.25
2023-04-30T16:42:02.357Z,94677.63
2023-04-30T16:44:28.990Z,94684.41
2023-04-30T16:46:58.247Z,94677.97
2023-04-30T16:49:24.975Z,94684.72
2023-04-30T16:51:51.820Z,94687.53
2023-04-30T16:54:18.896Z,94679.28
2023-04-30T16:56:45.615Z,94689.81
2023-04-30T16:59:12.315Z,94690.25
2023-04-30T17:01:39.200Z,94652.78
2023-04-30T17:04:07.236Z,94683.22
2023-04-30T17:07:11.980Z,94694.84
2023-04-30T17:09:38.637Z,94616.09
2023-04-30T17:12:05.601Z,94700.50
2023-04-30T17:14:34.264Z,94709.34
2023-04-30T17:17:01.982Z,94709.88
2023-04-30T17:19:28.877Z,94719.63
2023-04-30T17:21:57.179Z,94723.41
2023-04-30T17:24:24.390Z,94725.94
2023-04-30T17:26:51.756Z,94703.47
2023-04-30T17:29:22.803Z,94722.72
2023-04-30T17:31:50.107Z,94695.75
2023-04-30T17:34:17.733Z,94680.75
2023-04-30T17:36:44.947Z,94735.97
2023-04-30T17:39:13.026Z,94741.69
2023-04-30T17:41:41.182Z,94710.25
2023-04-30T17:44:08.520Z,94740.44
2023-04-30T17:46:35.900Z,94661.47
2023-04-30T17:49:03.715Z,94760.88
2023-04-30T17:51:31.799Z,94753.63
2023-04-30T17:54:02.724Z,94764.06
2023-04-30T17:56:33.448Z,94746.03
2023-04-30T17:59:01.134Z,94775.72
2023-04-30T18:01:28.185Z,94767.66
2023-04-30T18:03:55.527Z,94755.91
2023-04-30T18:06:22.350Z,94774.56
2023-04-30T18:08:49.409Z,94785.00
2023-04-30T18:11:16.737Z,94771.69
2023-04-30T18:13:43.790Z,94786.91
2023-04-30T18:16:10.840Z,94780.09
2023-04-30T18:18:37.703Z,94789.09
2023-04-30T18:21:08.914Z,94789.28
2023-04-30T18:23:37.302Z,94792.66
2023-04-30T18:26:05.151Z,94799.38
2023-04-30T18:28:31.838Z,94805.59
2023-04-30T18:30:58.537Z,94803.34
2023-04-30T18:33:26.319Z,94817.75
2023-04-30T18:35:53.239Z,94802.19
2023-04-30T18:38:20.867Z,94818.06
2023-04-30T18:40:47.664Z,94811.31
2023-04-30T18:43:16.392Z,94821.56
2023-04-30T18:45:43.179Z,94821.19
2023-04-30T18:48:10.098Z,94814.81
2023-04-30T18:50:37.384Z,94825.66
2023-04-30T18:53:04.725Z,94829.09
2023-04-30T18:55:31.601Z,94837.81
2023-04-30T18:57:58.817Z,94830.59
2023-04-30T19:00:25.972Z,94837.81
2023-04-30T19:02:52.849Z,94832.66
2023-04-30T19:05:19.916Z,94824.44
2023-04-30T19:07:46.907Z,94835.69
2023-04-30T19:10:13.811Z,94836.97
2023-04-30T19:12:41.530Z,94839.97
2023-04-30T19:15:10.004Z,94849.22
2023-04-30T19:17:36.755Z,94843.00
2023-04-30T19:20:04.132Z,94853.72
2023-04-30T19:22:31.189Z,94851.47
2023-04-30T19:25:01.254Z,94845.59
2023-04-30T19:27:28.237Z,94845.88
2023-04-30T19:29:55.279Z,94870.13
2023-04-30T19:32:22.191Z,94863.38
2023-04-30T19:34:49.042Z,94876.84
2023-04-30T19:37:15.795Z,94871.09
2023-04-30T19:39:43.219Z,94860.06
2023-04-30T19:42:10.092Z,94864.47
2023-04-30T19:44:37.091Z,94870.66
2023-04-30T19:47:05.104Z,94855.72
2023-04-30T19:49:34.413Z,94874.19
2023-04-30T19:52:02.423Z,94872.34
2023-04-30T19:54:29.110Z,94873.72
2023-04-30T19:56:56.041Z,94875.66
2023-04-30T19:59:22.950Z,94849.44
2023-04-30T20:01:50.129Z,94870.59
2023-04-30T20:04:17.002Z,94880.22
2023-04-30T20:06:44.960Z,94872.63
2023-04-30T20:09:12.035Z,94887.00
2023-04-30T20:11:38.839Z,94892.56
2023-04-30T20:14:05.717Z,94884.00
2023-04-30T20:16:32.687Z,94886.75
2023-04-30T20:18:59.605Z,94890.97
2023-04-30T20:21:26.434Z,94890.56
2023-04-30T20:23:53.403Z,94880.22
2023-04-30T20:26:21.617Z,94884.84
2023-04-30T20:28:48.417Z,94878.25
2023-04-30T20:31:15.367Z,94874.56
2023-04-30T20:33:42.450Z,94889.44
2023-04-30T20:36:09.203Z,94891.69
2023-04-30T20:38:36.228Z,94895.44
2023-04-30T20:41:02.905Z,94890.06
2023-04-30T20:43:29.698Z,94896.94
2023-04-30T20:45:58.906Z,94902.53
2023-04-30T20:48:26.441Z,94901.22
2023-04-30T20:50:53.052Z,94905.75
2023-04-30T20:53:19.953Z,94918.66
2023-04-30T20:55:46.597Z,94921.88
2023-04-30T20:58:13.244Z,94915.16
2023-04-30T21:00:40.113Z,94902.94
2023-04-30T21:03:07.015Z,94921.13
2023-04-30T21:05:34.356Z,94932.06
2023-04-30T21:08:01.920Z,94929.41
2023-04-30T21:10:36.229Z,94933.56
2023-04-30T21:13:08.872Z,94936.00
2023-04-30T21:15:36.382Z,94929.97
2023-04-30T21:18:03.482Z,94936.75
2023-04-30T21:20:31.657Z,94930.09
2023-04-30T21:22:58.618Z,94946.50
2023-04-30T21:25:25.252Z,94933.47
2023-04-30T21:27:52.310Z,94944.41
2023-04-30T21:30:19.210Z,94939.22
2023-04-30T21:32:48.848Z,94920.00
2023-04-30T21:35:15.842Z,94941.66
2023-04-30T21:37:42.563Z,94942.63
2023-04-30T21:40:09.647Z,94951.38
2023-04-30T21:42:36.453Z,94943.34
2023-04-30T21:45:03.450Z,94953.56
2023-04-30T21:47:30.843Z,94957.88
2023-04-30T21:49:58.830Z,94946.94
2023-04-30T21:52:25.962Z,94949.50
2023-04-30T21:54:52.634Z,94944.50
2023-04-30T21:57:19.573Z,94952.03
2023-04-30T21:59:46.224Z,94950.91
2023-04-30T22:02:23.316Z,94945.81
2023-04-30T22:04:51.247Z,94947.41
2023-04-30T22:07:18.293Z,94953.25
2023-04-30T22:09:45.065Z,94953.63
2023-04-30T22:12:12.276Z,94957.69
2023-04-30T22:14:39.232Z,94954.69
2023-04-30T22:17:06.014Z,94964.97
2023-04-30T22:19:32.631Z,94955.78
2023-04-30T22:21:59.719Z,94967.63
2023-04-30T22:24:26.332Z,94971.75
2023-04-30T22:26:52.959Z,94971.00
2023-04-30T22:29:19.945Z,94948.97
2023-04-30T22:31:46.989Z,94961.69
2023-04-30T22:34:15.515Z,94950.09
2023-04-30T22:36:43.626Z,94966.44
2023-04-30T22:39:10.245Z,94970.88
2023-04-30T22:41:36.922Z,94953.78
2023-04-30T22:44:04.748Z,94966.78
2023-04-30T22:46:33.575Z,94961.53
2023-04-30T22:49:01.056Z,94961.09
2023-04-30T22:51:27.680Z,94949.69
2023-04-30T22:53:55.497Z,94955.56
2023-04-30T22:56:23.355Z,94957.34
2023-04-30T22:58:50.079Z,94944.16
2023-04-30T23:01:16.960Z,94947.84
2023-04-30T23:03:43.768Z,94962.75
2023-04-30T23:06:11.086Z,94957.19
2023-04-30T23:08:37.855Z,94951.75
2023-04-30T23:11:05.314Z,94952.72
2023-04-30T23:13:32.024Z,94955.75
2023-04-30T23:15:59.542Z,94960.47
2023-04-30T23:18:26.369Z,94953.56
2023-04-30T23:20:59.011Z,94969.16
2023-04-30T23:23:26.791Z,94954.44
2023-04-30T23:25:54.744Z,94964.94
2023-04-30T23:28:22.473Z,94962.50
2023-04-30T23:30:52.629Z,94959.16
2023-04-30T23:33:19.947Z,94946.41
2023-04-30T23:35:47.090Z,94955.03
2023-04-30T23:38:14.888Z,94956.44
2023-04-30T23:40:42.326Z,94952.78
2023-04-30T23:43:09.554Z,94948.88
2023-04-30T23:45:36.175Z,94943.16
2023-04-30T23:48:02.905Z,94946.13
2023-04-30T23:50:29.625Z,94950.50
2023-04-30T23:52:56.255Z,94954.75
2023-04-30T23:55:22.920Z,94952.50
2023-04-30T23:57:49.517Z,94955.06
